sensor_id;sensor_type;location;lat;lon;timestamp;temperature;humidity
29479;DHT22;16437;41.836;23.480;2022-08-19T00:02:45;26.50;44.80
29479;DHT22;16437;41.836;23.480;2022-08-19T00:08:12;26.50;44.80
29479;DHT22;16437;41.836;23.480;2022-08-19T00:13:38;26.50;44.90
29479;DHT22;16437;41.836;23.480;2022-08-19T00:19:06;26.50;44.90
29479;DHT22;16437;41.836;23.480;2022-08-19T00:24:32;26.50;44.90
29479;DHT22;16437;41.836;23.480;2022-08-19T00:29:59;26.50;44.90
29479;DHT22;16437;41.836;23.480;2022-08-19T00:35:27;26.50;45.00
29479;DHT22;16437;41.836;23.480;2022-08-19T00:40:55;26.50;45.00
29479;DHT22;16437;41.836;23.480;2022-08-19T00:46:22;26.50;45.00
29479;DHT22;16437;41.836;23.480;2022-08-19T00:51:50;26.50;45.00
29479;DHT22;16437;41.836;23.480;2022-08-19T00:57:19;26.50;45.00
29479;DHT22;16437;41.836;23.480;2022-08-19T01:02:47;26.50;44.90
29479;DHT22;16437;41.836;23.480;2022-08-19T01:08:15;26.40;44.80
29479;DHT22;16437;41.836;23.480;2022-08-19T01:13:42;26.40;44.70
29479;DHT22;16437;41.836;23.480;2022-08-19T01:19:47;26.40;44.70
29479;DHT22;16437;41.836;23.480;2022-08-19T01:24:47;26.40;44.60
29479;DHT22;16437;41.836;23.480;2022-08-19T01:30:20;26.40;44.70
29479;DHT22;16437;41.836;23.480;2022-08-19T01:35:48;26.40;44.70
29479;DHT22;16437;41.836;23.480;2022-08-19T01:41:18;26.40;44.70
29479;DHT22;16437;41.836;23.480;2022-08-19T01:46:45;26.40;44.80
29479;DHT22;16437;41.836;23.480;2022-08-19T01:52:12;26.30;44.90
29479;DHT22;16437;41.836;23.480;2022-08-19T01:57:40;26.30;44.90
29479;DHT22;16437;41.836;23.480;2022-08-19T02:03:07;26.30;44.80
29479;DHT22;16437;41.836;23.480;2022-08-19T02:08:37;26.30;44.80
29479;DHT22;16437;41.836;23.480;2022-08-19T02:14:07;26.30;44.80
29479;DHT22;16437;41.836;23.480;2022-08-19T02:19:33;26.30;44.70
29479;DHT22;16437;41.836;23.480;2022-08-19T02:25:00;26.30;44.60
29479;DHT22;16437;41.836;23.480;2022-08-19T02:30:26;26.20;44.70
29479;DHT22;16437;41.836;23.480;2022-08-19T02:35:52;26.20;44.70
29479;DHT22;16437;41.836;23.480;2022-08-19T02:41:22;26.20;44.70
29479;DHT22;16437;41.836;23.480;2022-08-19T02:46:49;26.20;44.70
29479;DHT22;16437;41.836;23.480;2022-08-19T02:52:15;26.20;44.80
29479;DHT22;16437;41.836;23.480;2022-08-19T02:57:42;26.20;44.80
29479;DHT22;16437;41.836;23.480;2022-08-19T03:03:10;26.20;44.70
29479;DHT22;16437;41.836;23.480;2022-08-19T03:08:37;26.20;44.70
29479;DHT22;16437;41.836;23.480;2022-08-19T03:14:04;26.10;44.70
29479;DHT22;16437;41.836;23.480;2022-08-19T03:19:31;26.10;44.60
29479;DHT22;16437;41.836;23.480;2022-08-19T03:24:58;26.10;44.60
29479;DHT22;16437;41.836;23.480;2022-08-19T03:30:25;26.10;44.60
29479;DHT22;16437;41.836;23.480;2022-08-19T03:36:07;26.10;44.60
29479;DHT22;16437;41.836;23.480;2022-08-19T03:41:39;26.10;44.60
29479;DHT22;16437;41.836;23.480;2022-08-19T03:47:06;26.10;44.60
29479;DHT22;16437;41.836;23.480;2022-08-19T03:52:32;26.10;44.80
29479;DHT22;16437;41.836;23.480;2022-08-19T03:57:58;26.10;44.80
29479;DHT22;16437;41.836;23.480;2022-08-19T04:03:25;26.10;44.80
29479;DHT22;16437;41.836;23.480;2022-08-19T04:08:53;26.00;44.60
29479;DHT22;16437;41.836;23.480;2022-08-19T04:14:22;26.00;44.60
29479;DHT22;16437;41.836;23.480;2022-08-19T04:19:49;26.00;44.60
29479;DHT22;16437;41.836;23.480;2022-08-19T04:25:16;26.10;44.50
29479;DHT22;16437;41.836;23.480;2022-08-19T04:30:49;26.10;44.50
29479;DHT22;16437;41.836;23.480;2022-08-19T04:36:21;26.10;44.50
29479;DHT22;16437;41.836;23.480;2022-08-19T04:41:48;26.10;44.70
29479;DHT22;16437;41.836;23.480;2022-08-19T04:47:32;26.00;44.80
29479;DHT22;16437;41.836;23.480;2022-08-19T04:52:59;26.00;44.90
29479;DHT22;16437;41.836;23.480;2022-08-19T04:58:27;26.00;45.00
29479;DHT22;16437;41.836;23.480;2022-08-19T05:03:54;26.00;45.20
29479;DHT22;16437;41.836;23.480;2022-08-19T05:09:21;26.00;45.30
29479;DHT22;16437;41.836;23.480;2022-08-19T05:14:48;26.00;45.20
29479;DHT22;16437;41.836;23.480;2022-08-19T05:20:15;25.90;45.20
29479;DHT22;16437;41.836;23.480;2022-08-19T05:25:59;26.00;45.20
29479;DHT22;16437;41.836;23.480;2022-08-19T05:31:26;25.90;45.20
29479;DHT22;16437;41.836;23.480;2022-08-19T05:37:00;26.00;45.20
29479;DHT22;16437;41.836;23.480;2022-08-19T05:42:27;25.90;45.20
29479;DHT22;16437;41.836;23.480;2022-08-19T05:47:55;25.90;45.40
29479;DHT22;16437;41.836;23.480;2022-08-19T05:53:21;25.90;45.40
29479;DHT22;16437;41.836;23.480;2022-08-19T05:58:48;25.90;45.40
29479;DHT22;16437;41.836;23.480;2022-08-19T06:04:14;25.90;45.50
29479;DHT22;16437;41.836;23.480;2022-08-19T06:09:42;25.90;45.50
29479;DHT22;16437;41.836;23.480;2022-08-19T06:15:11;25.90;45.60
29479;DHT22;16437;41.836;23.480;2022-08-19T06:20:38;26.00;45.70
29479;DHT22;16437;41.836;23.480;2022-08-19T06:26:05;25.90;45.70
29479;DHT22;16437;41.836;23.480;2022-08-19T06:31:34;25.90;45.80
29479;DHT22;16437;41.836;23.480;2022-08-19T06:37:02;26.00;45.80
29479;DHT22;16437;41.836;23.480;2022-08-19T06:42:28;25.90;45.80
29479;DHT22;16437;41.836;23.480;2022-08-19T06:47:56;25.90;45.90
29479;DHT22;16437;41.836;23.480;2022-08-19T06:53:22;26.00;46.00
29479;DHT22;16437;41.836;23.480;2022-08-19T06:58:49;26.00;46.10
29479;DHT22;16437;41.836;23.480;2022-08-19T07:04:20;26.00;46.10
29479;DHT22;16437;41.836;23.480;2022-08-19T07:09:48;26.00;46.10
29479;DHT22;16437;41.836;23.480;2022-08-19T07:15:14;26.00;46.20
29479;DHT22;16437;41.836;23.480;2022-08-19T07:20:41;25.90;46.10
29479;DHT22;16437;41.836;23.480;2022-08-19T07:26:11;26.00;46.10
29479;DHT22;16437;41.836;23.480;2022-08-19T07:31:38;26.00;46.10
29479;DHT22;16437;41.836;23.480;2022-08-19T07:37:06;26.00;46.10
29479;DHT22;16437;41.836;23.480;2022-08-19T07:42:33;26.00;46.20
29479;DHT22;16437;41.836;23.480;2022-08-19T07:47:59;26.00;46.20
29479;DHT22;16437;41.836;23.480;2022-08-19T07:53:26;26.00;46.30
29479;DHT22;16437;41.836;23.480;2022-08-19T07:58:53;26.00;46.30
29479;DHT22;16437;41.836;23.480;2022-08-19T08:04:19;26.00;46.30
29479;DHT22;16437;41.836;23.480;2022-08-19T08:10:06;26.00;46.30
29479;DHT22;16437;41.836;23.480;2022-08-19T08:15:32;26.00;46.30
29479;DHT22;16437;41.836;23.480;2022-08-19T08:20:59;26.00;46.30
29479;DHT22;16437;41.836;23.480;2022-08-19T08:26:26;26.10;46.30
29479;DHT22;16437;41.836;23.480;2022-08-19T08:31:52;26.10;46.20
29479;DHT22;16437;41.836;23.480;2022-08-19T08:37:19;26.10;46.20
29479;DHT22;16437;41.836;23.480;2022-08-19T08:42:54;26.10;46.20
29479;DHT22;16437;41.836;23.480;2022-08-19T08:48:23;26.10;46.20
29479;DHT22;16437;41.836;23.480;2022-08-19T08:53:50;26.10;46.20
29479;DHT22;16437;41.836;23.480;2022-08-19T08:59:28;26.10;46.20
29479;DHT22;16437;41.836;23.480;2022-08-19T09:04:56;26.10;46.20
29479;DHT22;16437;41.836;23.480;2022-08-19T09:10:32;26.20;46.30
29479;DHT22;16437;41.836;23.480;2022-08-19T09:16:00;26.20;46.40
29479;DHT22;16437;41.836;23.480;2022-08-19T09:21:26;26.20;46.40
29479;DHT22;16437;41.836;23.480;2022-08-19T09:26:53;26.20;46.40
29479;DHT22;16437;41.836;23.480;2022-08-19T09:32:20;26.30;46.50
29479;DHT22;16437;41.836;23.480;2022-08-19T09:37:46;26.30;46.50
29479;DHT22;16437;41.836;23.480;2022-08-19T09:43:13;26.40;46.50
29479;DHT22;16437;41.836;23.480;2022-08-19T09:48:40;26.40;46.50
29479;DHT22;16437;41.836;23.480;2022-08-19T09:54:06;26.40;46.50
29479;DHT22;16437;41.836;23.480;2022-08-19T09:59:33;26.40;46.50
29479;DHT22;16437;41.836;23.480;2022-08-19T10:05:00;26.50;46.60
29479;DHT22;16437;41.836;23.480;2022-08-19T10:10:45;26.40;46.60
29479;DHT22;16437;41.836;23.480;2022-08-19T10:16:15;26.50;46.60
29479;DHT22;16437;41.836;23.480;2022-08-19T10:21:42;26.50;46.60
29479;DHT22;16437;41.836;23.480;2022-08-19T10:27:08;26.50;46.70
29479;DHT22;16437;41.836;23.480;2022-08-19T10:32:35;26.60;46.70
29479;DHT22;16437;41.836;23.480;2022-08-19T10:38:01;26.60;46.70
29479;DHT22;16437;41.836;23.480;2022-08-19T10:43:29;26.60;46.70
29479;DHT22;16437;41.836;23.480;2022-08-19T10:48:55;26.60;46.70
29479;DHT22;16437;41.836;23.480;2022-08-19T10:54:21;26.70;46.70
29479;DHT22;16437;41.836;23.480;2022-08-19T10:59:47;26.70;46.70
29479;DHT22;16437;41.836;23.480;2022-08-19T11:05:15;26.70;46.70
29479;DHT22;16437;41.836;23.480;2022-08-19T11:10:42;26.80;46.70
29479;DHT22;16437;41.836;23.480;2022-08-19T11:16:15;26.80;46.70
29479;DHT22;16437;41.836;23.480;2022-08-19T11:21:43;26.80;46.70
29479;DHT22;16437;41.836;23.480;2022-08-19T11:27:10;26.90;46.70
29479;DHT22;16437;41.836;23.480;2022-08-19T11:32:36;27.00;46.60
29479;DHT22;16437;41.836;23.480;2022-08-19T11:38:02;27.00;46.40
29479;DHT22;16437;41.836;23.480;2022-08-19T11:43:29;27.00;46.40
29479;DHT22;16437;41.836;23.480;2022-08-19T11:48:58;27.10;46.30
29479;DHT22;16437;41.836;23.480;2022-08-19T11:54:25;27.20;46.30
29479;DHT22;16437;41.836;23.480;2022-08-19T11:59:52;27.20;46.30
29479;DHT22;16437;41.836;23.480;2022-08-19T12:05:18;27.20;46.30
29479;DHT22;16437;41.836;23.480;2022-08-19T12:10:45;27.30;46.40
29479;DHT22;16437;41.836;23.480;2022-08-19T12:16:15;27.30;46.30
29479;DHT22;16437;41.836;23.480;2022-08-19T12:21:41;27.30;46.30
29479;DHT22;16437;41.836;23.480;2022-08-19T12:27:08;27.40;46.30
29479;DHT22;16437;41.836;23.480;2022-08-19T12:32:35;27.40;46.20
29479;DHT22;16437;41.836;23.480;2022-08-19T12:38:01;27.50;46.10
29479;DHT22;16437;41.836;23.480;2022-08-19T12:43:28;27.60;46.10
29479;DHT22;16437;41.836;23.480;2022-08-19T12:48:57;27.60;46.00
29479;DHT22;16437;41.836;23.480;2022-08-19T12:54:23;27.60;45.90
29479;DHT22;16437;41.836;23.480;2022-08-19T12:59:54;27.70;45.70
29479;DHT22;16437;41.836;23.480;2022-08-19T13:05:23;27.80;45.70
29479;DHT22;16437;41.836;23.480;2022-08-19T13:10:50;27.90;45.60
29479;DHT22;16437;41.836;23.480;2022-08-19T13:16:17;27.90;45.50
29479;DHT22;16437;41.836;23.480;2022-08-19T13:21:45;27.90;45.50
29479;DHT22;16437;41.836;23.480;2022-08-19T13:27:13;28.00;45.40
29479;DHT22;16437;41.836;23.480;2022-08-19T13:32:40;28.10;45.40
29479;DHT22;16437;41.836;23.480;2022-08-19T13:38:24;28.10;45.40
29479;DHT22;16437;41.836;23.480;2022-08-19T13:43:51;28.20;45.40
29479;DHT22;16437;41.836;23.480;2022-08-19T13:49:18;28.30;45.30
29479;DHT22;16437;41.836;23.480;2022-08-19T13:54:45;28.30;45.20
29479;DHT22;16437;41.836;23.480;2022-08-19T14:00:16;28.30;45.20
29479;DHT22;16437;41.836;23.480;2022-08-19T14:05:43;28.40;45.10
29479;DHT22;16437;41.836;23.480;2022-08-19T14:11:11;28.40;45.10
29479;DHT22;16437;41.836;23.480;2022-08-19T14:16:38;28.40;45.00
29479;DHT22;16437;41.836;23.480;2022-08-19T14:22:04;28.50;45.00
29479;DHT22;16437;41.836;23.480;2022-08-19T14:27:32;28.50;45.10
29479;DHT22;16437;41.836;23.480;2022-08-19T14:33:00;28.50;45.10
29479;DHT22;16437;41.836;23.480;2022-08-19T14:38:27;28.60;45.10
29479;DHT22;16437;41.836;23.480;2022-08-19T14:43:55;28.60;45.10
29479;DHT22;16437;41.836;23.480;2022-08-19T14:49:22;28.60;45.00
29479;DHT22;16437;41.836;23.480;2022-08-19T14:54:48;28.70;45.00
29479;DHT22;16437;41.836;23.480;2022-08-19T15:00:15;28.70;45.00
29479;DHT22;16437;41.836;23.480;2022-08-19T15:05:42;28.60;45.00
29479;DHT22;16437;41.836;23.480;2022-08-19T15:11:14;28.70;45.00
29479;DHT22;16437;41.836;23.480;2022-08-19T15:16:40;28.70;45.00
29479;DHT22;16437;41.836;23.480;2022-08-19T15:22:07;28.70;45.00
29479;DHT22;16437;41.836;23.480;2022-08-19T15:27:34;28.70;45.00
29479;DHT22;16437;41.836;23.480;2022-08-19T15:33:01;28.70;44.90
29479;DHT22;16437;41.836;23.480;2022-08-19T15:38:28;28.70;44.90
29479;DHT22;16437;41.836;23.480;2022-08-19T15:49:25;28.70;44.90
29479;DHT22;16437;41.836;23.480;2022-08-19T15:54:51;28.70;44.90
29479;DHT22;16437;41.836;23.480;2022-08-19T16:00:17;28.70;44.90
29479;DHT22;16437;41.836;23.480;2022-08-19T16:06:02;28.70;44.90
29479;DHT22;16437;41.836;23.480;2022-08-19T16:11:48;28.70;44.90
29479;DHT22;16437;41.836;23.480;2022-08-19T16:17:14;28.60;44.90
29479;DHT22;16437;41.836;23.480;2022-08-19T16:22:41;28.60;44.90
29479;DHT22;16437;41.836;23.480;2022-08-19T16:28:08;28.60;44.90
29479;DHT22;16437;41.836;23.480;2022-08-19T16:33:35;28.60;44.90
29479;DHT22;16437;41.836;23.480;2022-08-19T16:39:01;28.60;44.90
29479;DHT22;16437;41.836;23.480;2022-08-19T16:44:28;28.60;44.90
29479;DHT22;16437;41.836;23.480;2022-08-19T16:49:54;28.50;44.90
29479;DHT22;16437;41.836;23.480;2022-08-19T16:55:21;28.50;44.80
29479;DHT22;16437;41.836;23.480;2022-08-19T17:00:48;28.50;44.80
29479;DHT22;16437;41.836;23.480;2022-08-19T17:06:18;28.50;44.70
29479;DHT22;16437;41.836;23.480;2022-08-19T17:11:44;28.50;44.60
29479;DHT22;16437;41.836;23.480;2022-08-19T17:17:11;28.50;44.60
29479;DHT22;16437;41.836;23.480;2022-08-19T17:22:37;28.40;44.50
29479;DHT22;16437;41.836;23.480;2022-08-19T17:28:09;28.40;44.40
29479;DHT22;16437;41.836;23.480;2022-08-19T17:33:36;28.40;44.30
29479;DHT22;16437;41.836;23.480;2022-08-19T17:39:03;28.40;44.30
29479;DHT22;16437;41.836;23.480;2022-08-19T17:44:30;28.40;44.20
29479;DHT22;16437;41.836;23.480;2022-08-19T17:49:57;28.30;44.20
29479;DHT22;16437;41.836;23.480;2022-08-19T17:55:24;28.30;44.20
29479;DHT22;16437;41.836;23.480;2022-08-19T18:00:50;28.30;44.10
29479;DHT22;16437;41.836;23.480;2022-08-19T18:06:18;28.30;44.10
29479;DHT22;16437;41.836;23.480;2022-08-19T18:11:44;28.30;44.20
29479;DHT22;16437;41.836;23.480;2022-08-19T18:17:13;28.30;44.20
29479;DHT22;16437;41.836;23.480;2022-08-19T18:22:43;28.30;44.20
29479;DHT22;16437;41.836;23.480;2022-08-19T18:28:10;28.20;44.20
29479;DHT22;16437;41.836;23.480;2022-08-19T18:33:37;28.20;44.40
29479;DHT22;16437;41.836;23.480;2022-08-19T18:39:04;28.20;44.40
29479;DHT22;16437;41.836;23.480;2022-08-19T18:44:49;28.20;44.40
29479;DHT22;16437;41.836;23.480;2022-08-19T18:50:33;28.20;44.40
29479;DHT22;16437;41.836;23.480;2022-08-19T18:56:01;28.10;44.50
29479;DHT22;16437;41.836;23.480;2022-08-19T19:01:36;28.10;44.50
29479;DHT22;16437;41.836;23.480;2022-08-19T19:07:07;28.10;44.50
29479;DHT22;16437;41.836;23.480;2022-08-19T19:12:39;28.10;44.50
29479;DHT22;16437;41.836;23.480;2022-08-19T19:18:09;28.10;44.50
29479;DHT22;16437;41.836;23.480;2022-08-19T19:23:38;28.10;44.50
29479;DHT22;16437;41.836;23.480;2022-08-19T19:29:05;28.10;44.50
29479;DHT22;16437;41.836;23.480;2022-08-19T19:34:32;28.00;44.50
29479;DHT22;16437;41.836;23.480;2022-08-19T19:39:58;28.00;44.50
29479;DHT22;16437;41.836;23.480;2022-08-19T19:45:25;28.00;44.50
29479;DHT22;16437;41.836;23.480;2022-08-19T19:50:53;27.90;44.60
29479;DHT22;16437;41.836;23.480;2022-08-19T19:56:21;27.90;44.60
29479;DHT22;16437;41.836;23.480;2022-08-19T20:01:48;27.90;44.60
29479;DHT22;16437;41.836;23.480;2022-08-19T20:07:16;27.90;44.60
29479;DHT22;16437;41.836;23.480;2022-08-19T20:12:42;27.80;44.40
29479;DHT22;16437;41.836;23.480;2022-08-19T20:18:10;27.90;44.40
29479;DHT22;16437;41.836;23.480;2022-08-19T20:23:38;27.80;44.50
29479;DHT22;16437;41.836;23.480;2022-08-19T20:29:05;27.80;44.50
29479;DHT22;16437;41.836;23.480;2022-08-19T20:34:32;27.80;44.50
29479;DHT22;16437;41.836;23.480;2022-08-19T20:39:58;27.80;44.50
29479;DHT22;16437;41.836;23.480;2022-08-19T20:45:25;27.80;44.70
29479;DHT22;16437;41.836;23.480;2022-08-19T20:50:51;27.70;44.70
29479;DHT22;16437;41.836;23.480;2022-08-19T20:56:20;27.70;44.70
29479;DHT22;16437;41.836;23.480;2022-08-19T21:01:47;27.70;44.70
29479;DHT22;16437;41.836;23.480;2022-08-19T21:07:15;27.70;44.70
29479;DHT22;16437;41.836;23.480;2022-08-19T21:12:41;27.70;44.60
29479;DHT22;16437;41.836;23.480;2022-08-19T21:18:13;27.70;44.60
29479;DHT22;16437;41.836;23.480;2022-08-19T21:23:40;27.60;44.50
29479;DHT22;16437;41.836;23.480;2022-08-19T21:29:07;27.60;44.50
29479;DHT22;16437;41.836;23.480;2022-08-19T21:34:33;27.60;44.40
29479;DHT22;16437;41.836;23.480;2022-08-19T21:40:02;27.60;44.40
29479;DHT22;16437;41.836;23.480;2022-08-19T21:45:29;27.60;44.30
29479;DHT22;16437;41.836;23.480;2022-08-19T21:50:55;27.60;44.10
29479;DHT22;16437;41.836;23.480;2022-08-19T21:56:22;27.60;44.10
29479;DHT22;16437;41.836;23.480;2022-08-19T22:01:49;27.60;44.20
29479;DHT22;16437;41.836;23.480;2022-08-19T22:07:17;27.60;44.10
29479;DHT22;16437;41.836;23.480;2022-08-19T22:12:44;27.50;44.10
29479;DHT22;16437;41.836;23.480;2022-08-19T22:18:10;27.50;44.10
29479;DHT22;16437;41.836;23.480;2022-08-19T22:23:37;27.50;44.30
29479;DHT22;16437;41.836;23.480;2022-08-19T22:29:05;27.50;44.30
29479;DHT22;16437;41.836;23.480;2022-08-19T22:34:31;27.50;44.20
29479;DHT22;16437;41.836;23.480;2022-08-19T22:39:57;27.40;44.20
29479;DHT22;16437;41.836;23.480;2022-08-19T22:45:26;27.40;44.20
29479;DHT22;16437;41.836;23.480;2022-08-19T22:50:54;27.40;44.20
29479;DHT22;16437;41.836;23.480;2022-08-19T22:56:39;27.40;44.20
29479;DHT22;16437;41.836;23.480;2022-08-19T23:02:06;27.40;44.20
29479;DHT22;16437;41.836;23.480;2022-08-19T23:07:34;27.40;44.30
29479;DHT22;16437;41.836;23.480;2022-08-19T23:13:01;27.30;44.30
29479;DHT22;16437;41.836;23.480;2022-08-19T23:18:27;27.30;44.40
29479;DHT22;16437;41.836;23.480;2022-08-19T23:23:54;27.30;44.60
29479;DHT22;16437;41.836;23.480;2022-08-19T23:29:20;27.30;44.70
29479;DHT22;16437;41.836;23.480;2022-08-19T23:35:06;27.30;44.70
29479;DHT22;16437;41.836;23.480;2022-08-19T23:40:34;27.30;44.80
29479;DHT22;16437;41.836;23.480;2022-08-19T23:46:02;27.30;44.80
29479;DHT22;16437;41.836;23.480;2022-08-19T23:51:30;27.20;44.80
29479;DHT22;16437;41.836;23.480;2022-08-19T23:56:57;27.30;44.60
